Time;durP1;ratioP1;P1;durP2;ratioP2;P2;SDS_P1;SDS_P2;PMS_P1;PMS_P2;Temp;Humidity;BMP_temperature;BMP_pressure;BME280_temperature;BME280_humidity;BME280_pressure;Samples;Min_cycle;Max_cycle;Signal;HPM_P1;HPM_P2
2023/07/02 00:00:24;;;;;;;3.07;2.10;;;;;;;;;;5034191;28;20520;-85
2023/07/02 00:02:50;;;;;;;3.00;2.17;;;;;;;;;;5034168;28;20419;-85
2023/07/02 00:05:17;;;;;;;2.80;2.10;;;;;;;;;;5034028;28;20849;-85
2023/07/02 00:07:43;;;;;;;3.10;1.92;;;;;;;;;;5034003;28;20465;-84
2023/07/02 00:10:10;;;;;;;2.17;2.00;;;;;;;;;;5034006;28;20387;-85
2023/07/02 00:12:36;;;;;;;2.47;2.27;;;;;;;;;;5033862;28;20868;-84
2023/07/02 00:15:03;;;;;;;3.17;1.90;;;;;;;;;;5007369;28;20393;-84
2023/07/02 00:17:29;;;;;;;2.10;1.90;;;;;;;;;;5029144;28;20387;-85
2023/07/02 00:19:55;;;;;;;2.28;2.08;;;;;;;;;;5033897;28;20383;-85
2023/07/02 00:22:21;;;;;;;2.40;2.20;;;;;;;;;;5033736;28;20407;-84
2023/07/02 00:24:47;;;;;;;2.05;1.90;;;;;;;;;;5033650;28;20418;-84
2023/07/02 00:27:13;;;;;;;5.00;1.90;;;;;;;;;;5033388;28;20387;-84
2023/07/02 00:29:39;;;;;;;1.98;1.88;;;;;;;;;;5033287;28;20376;-84
2023/07/02 00:32:06;;;;;;;2.22;2.05;;;;;;;;;;5033637;28;20424;-84
2023/07/02 00:34:32;;;;;;;2.25;2.05;;;;;;;;;;5033195;28;20796;-84
2023/07/02 00:36:58;;;;;;;1.42;1.33;;;;;;;;;;5033521;28;20410;-84
2023/07/02 00:39:24;;;;;;;1.98;1.58;;;;;;;;;;5033518;28;20379;-84
2023/07/02 00:41:50;;;;;;;1.58;1.48;;;;;;;;;;5033217;28;20907;-84
2023/07/02 00:44:17;;;;;;;1.50;1.40;;;;;;;;;;5032938;28;20513;-84
2023/07/02 00:46:43;;;;;;;1.50;1.40;;;;;;;;;;5033270;28;20383;-85
2023/07/02 00:49:10;;;;;;;1.42;1.33;;;;;;;;;;5033363;28;20737;-85
2023/07/02 00:51:37;;;;;;;1.75;1.40;;;;;;;;;;5033150;28;20904;-85
2023/07/02 00:54:03;;;;;;;2.03;1.25;;;;;;;;;;5033506;28;20837;-85
2023/07/02 00:56:29;;;;;;;1.25;1.15;;;;;;;;;;5033191;28;20383;-85
2023/07/02 00:58:58;;;;;;;2.20;1.30;;;;;;;;;;5033042;28;20540;-85
2023/07/02 01:01:25;;;;;;;1.47;1.37;;;;;;;;;;5033147;28;20767;-85
2023/07/02 01:03:53;;;;;;;1.30;1.20;;;;;;;;;;5032875;28;20452;-85
2023/07/02 01:06:24;;;;;;;1.10;1.00;;;;;;;;;;5032030;28;20462;-85
2023/07/02 01:08:50;;;;;;;1.37;1.27;;;;;;;;;;5033058;28;20391;-85
2023/07/02 01:11:16;;;;;;;1.70;1.13;;;;;;;;;;5032797;28;20445;-85
2023/07/02 01:13:44;;;;;;;1.30;1.20;;;;;;;;;;5032672;28;20379;-85
2023/07/02 01:16:10;;;;;;;1.38;1.20;;;;;;;;;;5032774;28;20407;-85
2023/07/02 01:18:38;;;;;;;1.10;1.08;;;;;;;;;;5030803;23;20442;-83
2023/07/02 01:21:06;;;;;;;1.48;1.30;;;;;;;;;;5088481;28;20398;-83
2023/07/02 01:23:33;;;;;;;1.67;1.58;;;;;;;;;;5090424;28;20402;-83
2023/07/02 01:25:59;;;;;;;1.58;1.48;;;;;;;;;;5093214;28;20374;-83
2023/07/02 01:28:26;;;;;;;1.60;1.50;;;;;;;;;;5086631;28;20381;-83
2023/07/02 01:30:52;;;;;;;1.42;1.30;;;;;;;;;;5056033;28;20382;-83
2023/07/02 01:33:18;;;;;;;1.80;1.70;;;;;;;;;;5053166;28;20405;-83
2023/07/02 01:35:44;;;;;;;1.70;1.30;;;;;;;;;;5066804;28;20411;-82
2023/07/02 01:38:10;;;;;;;1.45;1.35;;;;;;;;;;5058738;28;20475;-83
2023/07/02 01:40:36;;;;;;;1.23;1.17;;;;;;;;;;5063535;28;20415;-83
2023/07/02 01:43:02;;;;;;;1.92;1.55;;;;;;;;;;5061866;28;20485;-83
2023/07/02 01:45:28;;;;;;;1.80;1.60;;;;;;;;;;5055098;28;20398;-83
2023/07/02 01:47:54;;;;;;;1.70;1.60;;;;;;;;;;5067775;28;20372;-83
2023/07/02 01:50:20;;;;;;;2.17;2.03;;;;;;;;;;5071177;28;20451;-83
2023/07/02 01:52:46;;;;;;;2.23;2.13;;;;;;;;;;5071590;28;20390;-82
2023/07/02 01:55:12;;;;;;;3.42;2.20;;;;;;;;;;5035368;28;20389;-83
2023/07/02 01:57:38;;;;;;;2.60;2.40;;;;;;;;;;5051580;28;20378;-82
2023/07/02 02:00:05;;;;;;;2.90;2.70;;;;;;;;;;5070515;28;20384;-83
2023/07/02 02:02:31;;;;;;;2.70;2.50;;;;;;;;;;5061910;28;20416;-83
2023/07/02 02:04:57;;;;;;;3.00;2.80;;;;;;;;;;5052122;28;20378;-83
2023/07/02 02:07:23;;;;;;;3.40;3.10;;;;;;;;;;5052187;28;20863;-82
2023/07/02 02:09:49;;;;;;;3.40;3.10;;;;;;;;;;5052074;28;20400;-83
2023/07/02 02:12:15;;;;;;;3.03;2.83;;;;;;;;;;5052316;28;20382;-83
2023/07/02 02:14:41;;;;;;;3.15;2.95;;;;;;;;;;5052466;28;20795;-83
2023/07/02 02:17:07;;;;;;;3.78;3.47;;;;;;;;;;5063529;28;20738;-83
2023/07/02 02:19:33;;;;;;;3.47;3.20;;;;;;;;;;5052150;28;20480;-83
2023/07/02 02:21:59;;;;;;;3.60;3.23;;;;;;;;;;5052035;28;20416;-82
2023/07/02 02:24:25;;;;;;;3.00;2.80;;;;;;;;;;5052566;28;20444;-82
2023/07/02 02:26:51;;;;;;;3.53;3.22;;;;;;;;;;5052083;28;20854;-83
2023/07/02 02:29:17;;;;;;;3.35;3.10;;;;;;;;;;5058738;28;20372;-83
2023/07/02 02:31:43;;;;;;;3.20;3.00;;;;;;;;;;5072251;28;20376;-83
2023/07/02 02:34:09;;;;;;;3.33;3.05;;;;;;;;;;5058154;28;20383;-82
2023/07/02 02:36:35;;;;;;;3.40;3.20;;;;;;;;;;5069259;28;20466;-82
2023/07/02 02:39:01;;;;;;;3.42;3.22;;;;;;;;;;5056061;28;20388;-83
2023/07/02 02:41:27;;;;;;;3.60;3.30;;;;;;;;;;5052395;28;20404;-83
2023/07/02 02:43:53;;;;;;;4.03;3.70;;;;;;;;;;5052278;28;20405;-83
2023/07/02 02:46:21;;;;;;;3.70;3.40;;;;;;;;;;5052030;28;20377;-83
2023/07/02 02:48:47;;;;;;;4.00;3.70;;;;;;;;;;5069530;28;20733;-82
2023/07/02 02:51:13;;;;;;;4.20;3.80;;;;;;;;;;5057714;28;20388;-82
2023/07/02 02:53:39;;;;;;;4.20;3.90;;;;;;;;;;5063489;28;20854;-83
2023/07/02 02:56:05;;;;;;;4.40;4.00;;;;;;;;;;5056313;28;20768;-83
2023/07/02 02:58:31;;;;;;;4.57;4.13;;;;;;;;;;5075198;28;20383;-83
2023/07/02 03:00:57;;;;;;;4.40;4.00;;;;;;;;;;5061158;28;20466;-83
2023/07/02 03:03:24;;;;;;;4.18;3.78;;;;;;;;;;5062090;28;20418;-83
2023/07/02 03:05:50;;;;;;;3.72;3.30;;;;;;;;;;5062992;28;20434;-83
2023/07/02 03:08:16;;;;;;;3.50;3.20;;;;;;;;;;5037566;28;20409;-83
2023/07/02 03:10:42;;;;;;;4.10;3.80;;;;;;;;;;5055621;28;20397;-83
2023/07/02 03:13:08;;;;;;;4.20;3.90;;;;;;;;;;5056572;28;20389;-83
2023/07/02 03:15:34;;;;;;;6.03;3.77;;;;;;;;;;5057634;28;20463;-83
2023/07/02 03:18:00;;;;;;;3.80;3.50;;;;;;;;;;5060469;28;20743;-84
2023/07/02 03:20:26;;;;;;;4.00;3.70;;;;;;;;;;5055069;28;20848;-84
2023/07/02 03:22:52;;;;;;;3.50;3.25;;;;;;;;;;5070638;28;20435;-83
2023/07/02 03:25:18;;;;;;;3.60;3.40;;;;;;;;;;5070255;28;20370;-84
2023/07/02 03:27:44;;;;;;;4.05;3.75;;;;;;;;;;5055010;28;20900;-84
2023/07/02 03:30:10;;;;;;;3.93;3.53;;;;;;;;;;5067619;28;20422;-84
2023/07/02 03:32:36;;;;;;;4.03;3.65;;;;;;;;;;5073139;28;20384;-84
2023/07/02 03:35:02;;;;;;;4.40;4.00;;;;;;;;;;5065508;28;20716;-83
2023/07/02 03:37:28;;;;;;;4.22;3.92;;;;;;;;;;5055240;28;20820;-84
2023/07/02 03:39:54;;;;;;;3.80;3.40;;;;;;;;;;5067131;28;20380;-84
2023/07/02 03:42:20;;;;;;;4.40;3.58;;;;;;;;;;5056475;28;20405;-83
2023/07/02 03:44:46;;;;;;;4.55;4.15;;;;;;;;;;5058020;28;20399;-83
2023/07/02 03:47:15;;;;;;;3.90;3.60;;;;;;;;;;5065383;28;20384;-83
2023/07/02 03:49:41;;;;;;;4.35;3.95;;;;;;;;;;5056011;28;20876;-83
2023/07/02 03:52:08;;;;;;;4.65;4.22;;;;;;;;;;5071011;28;20382;-83
2023/07/02 03:54:33;;;;;;;4.53;4.10;;;;;;;;;;5054490;28;20723;-83
2023/07/02 03:56:59;;;;;;;4.60;4.20;;;;;;;;;;5054758;28;20378;-83
2023/07/02 03:59:25;;;;;;;5.72;4.75;;;;;;;;;;5054462;28;20451;-83
2023/07/02 04:01:51;;;;;;;4.90;4.43;;;;;;;;;;5058012;28;20439;-83
2023/07/02 04:04:17;;;;;;;6.38;4.40;;;;;;;;;;5064329;28;20873;-83
2023/07/02 04:06:43;;;;;;;5.32;4.93;;;;;;;;;;5055806;28;20378;-83
2023/07/02 04:09:09;;;;;;;5.55;5.05;;;;;;;;;;5074252;28;20388;-83
2023/07/02 04:11:35;;;;;;;5.47;4.85;;;;;;;;;;5074363;28;20403;-83
2023/07/02 04:14:02;;;;;;;8.00;4.97;;;;;;;;;;5068756;28;20529;-84
2023/07/02 04:16:28;;;;;;;5.07;4.65;;;;;;;;;;5054794;28;20381;-83
2023/07/02 04:18:54;;;;;;;5.95;5.10;;;;;;;;;;5056812;28;20472;-83
2023/07/02 04:21:20;;;;;;;6.40;5.00;;;;;;;;;;5064945;28;20380;-83
2023/07/02 04:23:46;;;;;;;5.78;5.28;;;;;;;;;;5055711;28;20432;-83
2023/07/02 04:26:12;;;;;;;5.22;4.82;;;;;;;;;;5066710;28;20424;-83
2023/07/02 04:28:38;;;;;;;5.38;4.85;;;;;;;;;;5055389;28;20472;-83
2023/07/02 04:31:04;;;;;;;6.05;5.47;;;;;;;;;;5042975;28;20753;-83
2023/07/02 04:33:35;;;;;;;5.95;5.35;;;;;;;;;;5065428;28;20371;-83
2023/07/02 04:36:01;;;;;;;5.57;5.10;;;;;;;;;;5074135;28;20387;-84
2023/07/02 04:38:28;;;;;;;6.38;4.85;;;;;;;;;;5071557;28;20501;-82
2023/07/02 04:40:57;;;;;;;7.63;5.13;;;;;;;;;;5071069;28;20455;-82
2023/07/02 04:43:23;;;;;;;5.63;5.13;;;;;;;;;;5073905;28;20403;-82
2023/07/02 04:45:49;;;;;;;6.78;5.13;;;;;;;;;;5073588;28;20408;-84
2023/07/02 04:48:15;;;;;;;5.82;5.32;;;;;;;;;;5055786;28;20619;-84
2023/07/02 04:50:42;;;;;;;6.35;5.32;;;;;;;;;;5070042;28;20397;-83
2023/07/02 04:53:08;;;;;;;5.25;4.85;;;;;;;;;;5064457;28;20374;-83
2023/07/02 04:55:34;;;;;;;5.85;4.82;;;;;;;;;;5056898;28;20488;-84
2023/07/02 04:58:00;;;;;;;5.70;5.15;;;;;;;;;;5054607;28;20377;-84
2023/07/02 05:00:26;;;;;;;5.55;4.90;;;;;;;;;;5061962;28;20429;-84
2023/07/02 05:02:52;;;;;;;6.50;4.95;;;;;;;;;;5061143;28;20980;-83
2023/07/02 05:05:18;;;;;;;5.30;4.80;;;;;;;;;;5068655;28;20391;-83
2023/07/02 05:07:44;;;;;;;5.47;4.97;;;;;;;;;;5042861;28;20393;-83
2023/07/02 05:10:10;;;;;;;6.15;5.47;;;;;;;;;;5033081;28;20382;-83
2023/07/02 05:12:36;;;;;;;6.53;5.65;;;;;;;;;;5037135;28;20757;-83
2023/07/02 05:15:03;;;;;;;6.70;5.80;;;;;;;;;;5038155;28;20390;-83
2023/07/02 05:17:29;;;;;;;6.88;6.10;;;;;;;;;;5058414;28;20384;-83
2023/07/02 05:19:55;;;;;;;7.00;5.93;;;;;;;;;;5056012;28;20417;-83
2023/07/02 05:22:21;;;;;;;6.73;6.13;;;;;;;;;;5050340;28;20415;-83
2023/07/02 05:24:47;;;;;;;8.98;7.25;;;;;;;;;;5057579;28;20464;-83
2023/07/02 05:27:13;;;;;;;7.95;7.20;;;;;;;;;;5071721;28;20368;-83
2023/07/02 05:29:39;;;;;;;7.90;7.10;;;;;;;;;;5072763;28;20429;-83
2023/07/02 05:32:05;;;;;;;8.90;7.90;;;;;;;;;;5072737;28;20446;-83
2023/07/02 05:34:31;;;;;;;9.32;7.82;;;;;;;;;;5061211;28;20480;-82
2023/07/02 05:36:57;;;;;;;8.82;8.02;;;;;;;;;;5065806;28;20462;-83
2023/07/02 05:39:23;;;;;;;9.50;8.23;;;;;;;;;;5070517;28;20384;-83
2023/07/02 05:41:49;;;;;;;8.85;7.95;;;;;;;;;;5072566;28;20466;-83
2023/07/02 05:44:15;;;;;;;10.63;8.87;;;;;;;;;;5071557;28;20572;-83
2023/07/02 05:46:41;;;;;;;10.30;9.25;;;;;;;;;;5072307;28;20400;-83
2023/07/02 05:49:07;;;;;;;10.10;9.13;;;;;;;;;;5072778;28;20376;-84
2023/07/02 05:51:33;;;;;;;10.40;9.35;;;;;;;;;;5069418;28;20380;-83
2023/07/02 05:53:59;;;;;;;12.10;9.53;;;;;;;;;;5072749;28;20444;-84
2023/07/02 05:56:25;;;;;;;10.77;8.93;;;;;;;;;;5040768;28;20384;-84
2023/07/02 05:58:52;;;;;;;12.98;10.23;;;;;;;;;;5062896;28;20377;-84
2023/07/02 06:01:17;;;;;;;9.98;8.98;;;;;;;;;;5052667;28;20461;-83
2023/07/02 06:03:45;;;;;;;11.23;10.13;;;;;;;;;;5052364;28;20965;-84
2023/07/02 06:06:11;;;;;;;13.50;10.68;;;;;;;;;;5066216;28;20372;-82
2023/07/02 06:08:37;;;;;;;14.02;10.73;;;;;;;;;;5052483;28;20423;-81
2023/07/02 06:11:03;;;;;;;13.18;11.20;;;;;;;;;;5052295;28;20381;-82
2023/07/02 06:13:29;;;;;;;13.52;10.95;;;;;;;;;;5052284;28;20389;-81
2023/07/02 06:15:55;;;;;;;12.63;11.38;;;;;;;;;;5052315;28;20867;-82
2023/07/02 06:18:21;;;;;;;15.35;11.60;;;;;;;;;;5051728;28;20396;-82
2023/07/02 06:20:47;;;;;;;14.70;12.63;;;;;;;;;;5060094;28;20772;-82
2023/07/02 06:23:13;;;;;;;14.80;12.32;;;;;;;;;;5040174;28;20405;-82
2023/07/02 06:25:39;;;;;;;15.20;12.93;;;;;;;;;;5052729;28;20862;-82
2023/07/02 06:28:05;;;;;;;16.73;12.95;;;;;;;;;;5072820;28;20370;-82
2023/07/02 06:30:31;;;;;;;17.20;13.47;;;;;;;;;;5058123;28;20468;-84
2023/07/02 06:32:57;;;;;;;14.73;13.15;;;;;;;;;;5058982;28;20383;-82
2023/07/02 06:35:23;;;;;;;18.75;14.65;;;;;;;;;;5073755;28;20859;-85
2023/07/02 06:37:49;;;;;;;16.85;13.80;;;;;;;;;;5056033;28;20400;-84
2023/07/02 06:40:15;;;;;;;16.58;13.93;;;;;;;;;;5038009;28;20377;-82
2023/07/02 06:42:41;;;;;;;21.80;14.52;;;;;;;;;;5060529;28;20405;-84
2023/07/02 06:45:08;;;;;;;18.45;14.40;;;;;;;;;;5075778;28;20376;-83
2023/07/02 06:47:34;;;;;;;18.80;14.55;;;;;;;;;;5075245;28;20511;-85
2023/07/02 06:50:00;;;;;;;18.08;14.07;;;;;;;;;;5055598;28;20734;-83
2023/07/02 06:52:26;;;;;;;18.00;14.00;;;;;;;;;;5055765;28;20461;-83
2023/07/02 06:54:52;;;;;;;18.95;14.93;;;;;;;;;;5065992;28;20389;-84
2023/07/02 06:57:18;;;;;;;20.67;14.32;;;;;;;;;;5055753;28;20381;-84
2023/07/02 06:59:44;;;;;;;21.70;15.10;;;;;;;;;;5069318;28;20382;-84
2023/07/02 07:02:10;;;;;;;18.60;14.40;;;;;;;;;;5072827;28;20932;-84
2023/07/02 07:04:36;;;;;;;18.20;14.23;;;;;;;;;;5061142;28;20370;-84
2023/07/02 07:07:02;;;;;;;20.10;15.17;;;;;;;;;;5050410;28;20957;-85
2023/07/02 07:09:28;;;;;;;19.02;14.73;;;;;;;;;;5068196;28;20372;-84
2023/07/02 07:11:55;;;;;;;20.43;14.87;;;;;;;;;;5038113;28;20389;-82
2023/07/02 07:14:20;;;;;;;20.17;15.35;;;;;;;;;;5055186;28;20378;-82
2023/07/02 07:16:46;;;;;;;22.63;15.40;;;;;;;;;;5057906;28;20464;-82
2023/07/02 07:19:13;;;;;;;21.83;15.82;;;;;;;;;;5048087;28;20456;-83
2023/07/02 07:21:39;;;;;;;20.42;15.48;;;;;;;;;;5058782;28;20420;-83
2023/07/02 07:24:06;;;;;;;27.35;16.40;;;;;;;;;;5054928;28;20850;-84
2023/07/02 07:26:32;;;;;;;23.02;16.58;;;;;;;;;;5068072;28;20387;-83
2023/07/02 07:28:58;;;;;;;26.48;17.48;;;;;;;;;;5074514;28;20368;-84
2023/07/02 07:31:24;;;;;;;23.08;16.88;;;;;;;;;;5069665;28;20433;-83
2023/07/02 07:33:50;;;;;;;24.73;17.60;;;;;;;;;;5085162;22;20431;-81
2023/07/02 07:36:16;;;;;;;24.35;16.73;;;;;;;;;;5074023;28;20791;-80
2023/07/02 07:38:45;;;;;;;24.20;16.83;;;;;;;;;;5071289;28;20414;-79
2023/07/02 07:41:11;;;;;;;26.63;17.73;;;;;;;;;;5073883;28;20386;-83
2023/07/02 07:43:37;;;;;;;28.25;17.30;;;;;;;;;;5072506;28;20400;-83
2023/07/02 07:46:03;;;;;;;23.48;17.42;;;;;;;;;;5054755;28;20385;-83
2023/07/02 07:48:29;;;;;;;25.63;17.50;;;;;;;;;;5054248;28;20377;-83
2023/07/02 07:50:55;;;;;;;24.77;17.75;;;;;;;;;;5054602;28;20912;-82
2023/07/02 07:53:21;;;;;;;23.80;16.97;;;;;;;;;;5053724;28;20385;-82
2023/07/02 07:55:47;;;;;;;24.38;16.70;;;;;;;;;;5058040;28;20386;-82
2023/07/02 07:58:13;;;;;;;24.15;16.63;;;;;;;;;;5054182;28;20384;-82
2023/07/02 08:00:39;;;;;;;24.90;17.23;;;;;;;;;;5053948;28;20378;-83
2023/07/02 08:03:06;;;;;;;25.80;17.43;;;;;;;;;;5054062;28;20405;-83
2023/07/02 08:05:32;;;;;;;25.85;17.75;;;;;;;;;;5053943;28;20424;-84
2023/07/02 08:07:58;;;;;;;26.50;17.33;;;;;;;;;;5054028;28;20385;-83
2023/07/02 08:10:25;;;;;;;25.20;17.60;;;;;;;;;;5053773;28;20959;-83
2023/07/02 08:12:52;;;;;;;22.23;17.37;;;;;;;;;;5053917;28;20912;-83
2023/07/02 08:15:18;;;;;;;27.30;17.98;;;;;;;;;;5053924;28;20382;-82
2023/07/02 08:17:44;;;;;;;25.42;18.15;;;;;;;;;;5053964;28;20770;-82
2023/07/02 08:20:10;;;;;;;25.88;17.70;;;;;;;;;;5052503;28;20431;-82
2023/07/02 08:22:39;;;;;;;24.77;17.70;;;;;;;;;;5053597;28;20401;-82
2023/07/02 08:25:06;;;;;;;23.42;18.17;;;;;;;;;;5053704;28;20386;-83
2023/07/02 08:27:32;;;;;;;27.33;18.20;;;;;;;;;;5053424;28;20388;-82
2023/07/02 08:29:58;;;;;;;25.00;18.58;;;;;;;;;;5053403;28;20369;-82
2023/07/02 08:32:24;;;;;;;25.15;17.90;;;;;;;;;;5053456;28;20424;-82
2023/07/02 08:34:53;;;;;;;25.98;19.08;;;;;;;;;;5053387;28;20462;-82
2023/07/02 08:37:19;;;;;;;25.58;18.13;;;;;;;;;;5053423;28;20381;-82
2023/07/02 08:39:45;;;;;;;25.65;18.42;;;;;;;;;;5051975;28;20386;-82
2023/07/02 08:42:11;;;;;;;25.85;18.58;;;;;;;;;;5053472;28;20409;-85
2023/07/02 08:44:37;;;;;;;25.70;18.25;;;;;;;;;;5052458;28;20369;-81
2023/07/02 08:47:04;;;;;;;27.02;18.77;;;;;;;;;;5051057;28;20459;-82
2023/07/02 08:49:30;;;;;;;25.77;18.33;;;;;;;;;;5051922;28;20472;-81
2023/07/02 08:51:56;;;;;;;27.73;19.53;;;;;;;;;;5051874;28;20386;-82
2023/07/02 08:54:22;;;;;;;26.08;18.65;;;;;;;;;;5052814;28;20397;-82
2023/07/02 08:56:48;;;;;;;25.27;18.60;;;;;;;;;;5052945;28;20377;-84
2023/07/02 08:59:14;;;;;;;26.33;19.38;;;;;;;;;;5053133;28;20447;-82
2023/07/02 09:01:50;;;;;;;26.92;19.75;;;;;;;;;;5052923;28;20388;-82
2023/07/02 09:04:20;;;;;;;29.97;19.27;;;;;;;;;;5052436;28;20390;-83
2023/07/02 09:06:46;;;;;;;27.90;19.60;;;;;;;;;;5051580;28;20456;-84
2023/07/02 09:09:12;;;;;;;30.33;20.35;;;;;;;;;;5052791;28;20378;-83
2023/07/02 09:11:50;;;;;;;28.05;19.23;;;;;;;;;;5052800;28;20916;-83
2023/07/02 09:14:30;;;;;;;27.08;19.13;;;;;;;;;;5040321;28;20369;-83
2023/07/02 09:17:06;;;;;;;26.35;19.63;;;;;;;;;;5052578;28;20469;-83
2023/07/02 09:19:32;;;;;;;26.67;18.52;;;;;;;;;;5052727;28;20862;-82
2023/07/02 09:22:00;;;;;;;26.35;19.13;;;;;;;;;;5052430;28;20378;-83
2023/07/02 09:24:26;;;;;;;23.42;17.35;;;;;;;;;;5052742;28;20416;-83
2023/07/02 09:26:54;;;;;;;20.52;16.48;;;;;;;;;;5052780;28;20850;-83
2023/07/02 09:29:24;;;;;;;20.73;15.63;;;;;;;;;;5051992;28;20380;-83
2023/07/02 09:31:50;;;;;;;19.95;15.00;;;;;;;;;;5052652;28;20774;-82
2023/07/02 09:34:16;;;;;;;19.67;15.60;;;;;;;;;;5052119;28;20405;-83
2023/07/02 09:36:43;;;;;;;20.50;14.70;;;;;;;;;;5052469;28;20901;-83
2023/07/02 09:39:12;;;;;;;19.77;14.65;;;;;;;;;;5052210;28;20385;-82
2023/07/02 09:41:38;;;;;;;18.77;15.60;;;;;;;;;;5052593;28;20430;-82
2023/07/02 09:44:05;;;;;;;18.58;14.90;;;;;;;;;;5052235;28;20446;-83
2023/07/02 09:46:32;;;;;;;16.48;14.15;;;;;;;;;;5052187;28;20377;-83
2023/07/02 09:48:58;;;;;;;16.75;14.70;;;;;;;;;;5052285;28;20384;-82
2023/07/02 09:51:25;;;;;;;17.98;14.20;;;;;;;;;;5052062;28;20397;-82
2023/07/02 09:53:51;;;;;;;17.17;13.98;;;;;;;;;;5051260;28;20411;-82
2023/07/02 09:56:18;;;;;;;18.33;14.70;;;;;;;;;;5051859;28;20392;-83
2023/07/02 09:58:45;;;;;;;18.70;14.90;;;;;;;;;;5052092;28;20393;-83
2023/07/02 10:01:11;;;;;;;18.17;15.00;;;;;;;;;;5051920;28;20385;-83
2023/07/02 10:03:37;;;;;;;16.80;13.48;;;;;;;;;;5051459;28;20413;-83
2023/07/02 10:06:04;;;;;;;14.82;13.05;;;;;;;;;;5052014;28;20380;-82
2023/07/02 10:08:30;;;;;;;9.43;8.60;;;;;;;;;;5051825;28;20950;-83
2023/07/02 10:11:06;;;;;;;10.32;9.27;;;;;;;;;;5050676;28;20390;-83
2023/07/02 10:13:32;;;;;;;11.23;10.03;;;;;;;;;;5058405;28;20417;-83
2023/07/02 10:16:05;;;;;;;9.50;8.50;;;;;;;;;;5057541;28;20381;-83
2023/07/02 10:18:31;;;;;;;8.65;7.75;;;;;;;;;;5058474;28;20373;-83
2023/07/02 10:20:57;;;;;;;7.95;7.22;;;;;;;;;;5055423;28;20385;-83
2023/07/02 10:23:34;;;;;;;9.68;8.68;;;;;;;;;;5051675;28;20405;-83
2023/07/02 10:26:10;;;;;;;8.68;7.78;;;;;;;;;;5042179;28;20384;-82
2023/07/02 10:28:36;;;;;;;8.77;7.88;;;;;;;;;;5051766;28;20855;-83
2023/07/02 10:31:02;;;;;;;7.20;6.50;;;;;;;;;;5050918;28;20424;-83
2023/07/02 10:33:28;;;;;;;6.10;5.50;;;;;;;;;;5043081;28;20412;-83
2023/07/02 10:35:54;;;;;;;7.40;6.68;;;;;;;;;;5051704;28;20381;-83
2023/07/02 10:38:23;;;;;;;7.35;6.25;;;;;;;;;;5051818;28;20847;-83
2023/07/02 10:41:03;;;;;;;6.40;5.80;;;;;;;;;;5051498;28;20389;-83
2023/07/02 10:43:29;;;;;;;6.50;5.90;;;;;;;;;;5050060;28;20475;-83
2023/07/02 10:45:55;;;;;;;6.90;5.95;;;;;;;;;;5050954;28;20384;-84
2023/07/02 10:48:22;;;;;;;7.43;6.73;;;;;;;;;;5051578;28;20899;-84
2023/07/02 10:50:48;;;;;;;7.43;6.65;;;;;;;;;;5051503;28;20388;-84
2023/07/02 10:53:18;;;;;;;6.85;6.25;;;;;;;;;;5050073;28;20743;-84
2023/07/02 10:55:44;;;;;;;8.52;7.63;;;;;;;;;;5051731;28;20381;-84
2023/07/02 10:58:10;;;;;;;8.90;8.00;;;;;;;;;;5051300;28;20385;-83
2023/07/02 11:00:50;;;;;;;9.00;8.10;;;;;;;;;;5049683;28;20925;-84
2023/07/02 11:03:26;;;;;;;10.40;9.40;;;;;;;;;;5049747;28;20409;-84
2023/07/02 11:05:53;;;;;;;9.77;8.75;;;;;;;;;;5051631;28;20381;-83
2023/07/02 11:08:21;;;;;;;9.55;8.60;;;;;;;;;;5050846;28;20365;-84
2023/07/02 11:10:47;;;;;;;9.60;8.50;;;;;;;;;;5051376;28;20489;-84
2023/07/02 11:13:14;;;;;;;10.15;9.15;;;;;;;;;;5051471;28;20388;-83
2023/07/02 11:15:41;;;;;;;10.95;9.85;;;;;;;;;;5054885;28;20393;-83
2023/07/02 11:18:14;;;;;;;10.60;9.70;;;;;;;;;;5054966;28;20373;-84
2023/07/02 11:20:48;;;;;;;11.15;9.93;;;;;;;;;;5054876;28;20742;-84
2023/07/02 11:23:22;;;;;;;9.75;8.30;;;;;;;;;;5054919;28;20405;-83
2023/07/02 11:26:00;;;;;;;8.13;7.33;;;;;;;;;;5054698;28;20396;-84
2023/07/02 11:28:27;;;;;;;9.10;8.20;;;;;;;;;;5054683;28;20392;-84
2023/07/02 11:30:53;;;;;;;10.50;9.50;;;;;;;;;;5054622;28;20384;-83
2023/07/02 11:33:19;;;;;;;9.77;8.80;;;;;;;;;;5054324;28;20401;-84
2023/07/02 11:35:45;;;;;;;10.50;9.50;;;;;;;;;;5054760;28;20404;-84
2023/07/02 11:38:12;;;;;;;10.18;9.18;;;;;;;;;;5054465;28;20946;-84
2023/07/02 11:40:38;;;;;;;10.35;9.35;;;;;;;;;;5054484;28;20381;-83
2023/07/02 11:43:05;;;;;;;10.65;9.55;;;;;;;;;;5054365;28;20503;-84
2023/07/02 11:45:31;;;;;;;10.90;9.80;;;;;;;;;;5053416;28;20457;-83
2023/07/02 11:48:00;;;;;;;10.52;9.48;;;;;;;;;;5038985;28;20400;-84
2023/07/02 11:50:27;;;;;;;10.05;9.15;;;;;;;;;;5054369;28;20897;-84
2023/07/02 11:52:53;;;;;;;10.63;9.63;;;;;;;;;;5054317;28;20385;-83
2023/07/02 11:55:19;;;;;;;9.65;8.75;;;;;;;;;;5054189;28;20386;-84
2023/07/02 11:57:46;;;;;;;9.77;8.77;;;;;;;;;;5054438;28;20461;-84
2023/07/02 12:00:12;;;;;;;9.70;8.68;;;;;;;;;;5052798;28;20856;-83
2023/07/02 12:02:38;;;;;;;9.00;8.20;;;;;;;;;;5054190;28;20915;-83
2023/07/02 12:05:04;;;;;;;9.00;8.10;;;;;;;;;;5053798;28;20382;-83
2023/07/02 12:07:30;;;;;;;10.93;8.88;;;;;;;;;;5054006;28;20591;-84
2023/07/02 12:09:56;;;;;;;9.15;8.35;;;;;;;;;;5053212;28;20901;-84
2023/07/02 12:12:22;;;;;;;8.38;7.57;;;;;;;;;;5054194;28;20431;-83
2023/07/02 12:14:51;;;;;;;8.48;7.78;;;;;;;;;;5053637;28;20382;-84
2023/07/02 12:17:17;;;;;;;8.77;7.88;;;;;;;;;;5053514;28;20397;-84
2023/07/02 12:19:43;;;;;;;8.85;7.95;;;;;;;;;;5052126;28;20382;-83
2023/07/02 12:22:09;;;;;;;8.40;7.60;;;;;;;;;;5053502;28;20905;-83
2023/07/02 12:24:38;;;;;;;9.00;8.10;;;;;;;;;;5051866;28;20917;-83
2023/07/02 12:27:04;;;;;;;7.72;7.03;;;;;;;;;;5053438;28;20376;-84
2023/07/02 12:29:30;;;;;;;8.15;7.40;;;;;;;;;;5053766;28;20408;-85
2023/07/02 12:31:56;;;;;;;8.90;8.10;;;;;;;;;;5053446;28;20409;-82
2023/07/02 12:34:22;;;;;;;8.68;7.88;;;;;;;;;;5053175;28;20762;-82
2023/07/02 12:36:48;;;;;;;7.95;7.18;;;;;;;;;;5060523;28;20369;-83
2023/07/02 12:39:14;;;;;;;8.33;7.63;;;;;;;;;;5051279;28;20385;-83
2023/07/02 12:41:40;;;;;;;8.80;8.00;;;;;;;;;;5052137;28;20457;-83
2023/07/02 12:44:06;;;;;;;9.15;8.25;;;;;;;;;;5053011;28;20966;-82
2023/07/02 12:46:32;;;;;;;9.57;8.60;;;;;;;;;;5053142;28;20435;-83
2023/07/02 12:48:58;;;;;;;8.57;7.68;;;;;;;;;;5053063;28;20743;-83
2023/07/02 12:51:24;;;;;;;8.70;7.90;;;;;;;;;;5053334;28;20409;-83
2023/07/02 12:53:50;;;;;;;7.93;7.20;;;;;;;;;;5052584;28;20882;-83
2023/07/02 12:56:16;;;;;;;8.60;7.80;;;;;;;;;;5053012;28;20853;-83
2023/07/02 12:58:42;;;;;;;7.87;7.07;;;;;;;;;;5052922;28;20912;-83
2023/07/02 13:01:08;;;;;;;7.50;6.80;;;;;;;;;;5052990;28;20385;-83
2023/07/02 13:03:37;;;;;;;7.57;6.88;;;;;;;;;;5052684;28;20424;-84
2023/07/02 13:06:03;;;;;;;7.72;7.03;;;;;;;;;;5052788;28;20373;-83
2023/07/02 13:08:29;;;;;;;7.80;7.10;;;;;;;;;;5050651;28;20401;-81
2023/07/02 13:10:55;;;;;;;7.20;6.55;;;;;;;;;;5052822;28;20436;-82
2023/07/02 13:13:22;;;;;;;8.65;7.05;;;;;;;;;;5052684;28;20382;-81
2023/07/02 13:15:48;;;;;;;7.32;6.63;;;;;;;;;;5052665;28;20381;-82
2023/07/02 13:18:14;;;;;;;7.60;6.90;;;;;;;;;;5052630;28;20461;-81
2023/07/02 13:20:43;;;;;;;10.68;6.63;;;;;;;;;;5051248;28;20405;-82
2023/07/02 13:23:09;;;;;;;6.63;5.97;;;;;;;;;;5052464;28;20417;-81
2023/07/02 13:25:35;;;;;;;7.07;6.37;;;;;;;;;;5052337;28;20378;-82
2023/07/02 13:28:01;;;;;;;7.23;6.57;;;;;;;;;;5052626;28;20377;-82
2023/07/02 13:30:28;;;;;;;7.40;6.80;;;;;;;;;;5052040;28;20885;-82
2023/07/02 13:32:54;;;;;;;7.18;6.57;;;;;;;;;;5052568;28;20397;-83
2023/07/02 13:35:22;;;;;;;6.97;6.38;;;;;;;;;;5050909;28;20440;-81
2023/07/02 13:37:48;;;;;;;7.35;6.65;;;;;;;;;;5051340;28;20519;-82
2023/07/02 13:40:15;;;;;;;7.40;6.60;;;;;;;;;;5051167;28;20494;-82
2023/07/02 13:42:42;;;;;;;9.27;6.38;;;;;;;;;;5051362;28;20409;-83
2023/07/02 13:45:08;;;;;;;6.75;6.15;;;;;;;;;;5051741;28;20895;-83
2023/07/02 13:47:35;;;;;;;8.77;6.90;;;;;;;;;;5052243;28;20385;-81
2023/07/02 13:50:01;;;;;;;7.80;7.10;;;;;;;;;;5052017;28;20396;-83
2023/07/02 13:52:30;;;;;;;7.22;6.53;;;;;;;;;;5052268;28;20732;-82
2023/07/02 13:54:58;;;;;;;7.30;6.60;;;;;;;;;;5050620;28;20385;-82
2023/07/02 13:57:24;;;;;;;6.63;6.13;;;;;;;;;;5052636;28;20381;-82
2023/07/02 13:59:50;;;;;;;8.00;5.80;;;;;;;;;;5051876;28;20385;-82
2023/07/02 14:02:18;;;;;;;6.45;5.85;;;;;;;;;;5051321;28;20928;-82
2023/07/02 14:04:44;;;;;;;6.50;5.90;;;;;;;;;;5051989;28;20468;-82
2023/07/02 14:07:10;;;;;;;6.57;6.00;;;;;;;;;;5052068;28;20417;-82
2023/07/02 14:09:37;;;;;;;6.18;5.68;;;;;;;;;;5052014;28;20460;-84
2023/07/02 14:12:03;;;;;;;6.65;6.05;;;;;;;;;;5051862;28;20409;-82
2023/07/02 14:14:29;;;;;;;6.53;5.93;;;;;;;;;;5052305;28;20759;-81
2023/07/02 14:16:56;;;;;;;6.75;6.15;;;;;;;;;;5050708;28;20432;-82
2023/07/02 14:19:22;;;;;;;6.85;6.25;;;;;;;;;;5046549;28;20385;-81
2023/07/02 14:21:48;;;;;;;6.38;5.88;;;;;;;;;;5051476;28;20389;-81
2023/07/02 14:24:15;;;;;;;6.40;5.90;;;;;;;;;;5051708;28;20759;-81
2023/07/02 14:26:41;;;;;;;6.67;6.03;;;;;;;;;;5050584;28;20712;-82
2023/07/02 14:29:07;;;;;;;5.80;5.30;;;;;;;;;;5050846;28;20388;-82
2023/07/02 14:31:33;;;;;;;6.13;5.63;;;;;;;;;;5050530;28;20379;-84